createdAt,value
2023-02-24T00:01:51.607Z,4.20
2023-02-24T00:04:20.835Z,4.20
2023-02-24T00:06:48.761Z,4.10
2023-02-24T00:09:21.470Z,4.10
2023-02-24T00:11:55.688Z,4.10
2023-02-24T00:14:24.742Z,4.20
2023-02-24T00:16:53.671Z,4.10
2023-02-24T00:19:25.504Z,4.10
2023-02-24T00:21:54.282Z,4.00
2023-02-24T00:24:23.989Z,4.00
2023-02-24T00:26:55.786Z,3.90
2023-02-24T00:29:24.408Z,3.90
2023-02-24T00:31:59.096Z,3.80
2023-02-24T00:34:31.197Z,3.70
2023-02-24T00:36:58.941Z,3.70
2023-02-24T00:39:32.859Z,3.60
2023-02-24T00:42:07.300Z,3.60
2023-02-24T00:44:40.276Z,3.60
2023-02-24T00:47:10.274Z,3.60
2023-02-24T00:49:42.342Z,3.60
2023-02-24T00:52:20.635Z,3.60
2023-02-24T00:54:48.864Z,3.80
2023-02-24T00:57:21.643Z,3.90
2023-02-24T00:59:50.789Z,3.90
2023-02-24T01:02:17.850Z,4.00
2023-02-24T01:04:45.251Z,4.00
2023-02-24T01:07:13.270Z,4.00
2023-02-24T01:09:41.849Z,4.00
2023-02-24T01:12:22.462Z,4.20
2023-02-24T01:14:51.900Z,4.10
2023-02-24T01:17:20.045Z,4.20
2023-02-24T01:19:49.721Z,4.20
2023-02-24T01:22:18.131Z,4.20
2023-02-24T01:24:45.784Z,4.20
2023-02-24T01:27:14.440Z,4.30
2023-02-24T01:29:43.452Z,4.30
2023-02-24T01:32:19.610Z,4.40
2023-02-24T01:34:47.706Z,4.30
2023-02-24T01:37:17.670Z,4.30
2023-02-24T01:39:45.690Z,4.40
2023-02-24T01:42:22.417Z,4.40
2023-02-24T01:44:51.923Z,4.40
2023-02-24T01:47:21.176Z,4.30
2023-02-24T01:49:54.063Z,4.20
2023-02-24T01:52:34.806Z,4.20
2023-02-24T01:55:09.304Z,4.20
2023-02-24T01:57:38.762Z,4.20
2023-02-24T02:00:12.038Z,4.30
2023-02-24T02:02:42.376Z,4.20
2023-02-24T02:05:10.403Z,4.30
2023-02-24T02:07:40.563Z,4.20
2023-02-24T02:10:09.146Z,4.30
2023-02-24T02:12:43.997Z,4.30
2023-02-24T02:15:18.786Z,4.30
2023-02-24T02:18:02.956Z,4.30
2023-02-24T02:20:36.014Z,4.30
2023-02-24T02:23:03.102Z,4.30
2023-02-24T02:25:48.232Z,4.20
2023-02-24T02:28:57.060Z,4.20
2023-02-24T02:31:55.401Z,4.20
2023-02-24T02:34:41.154Z,4.20
2023-02-24T02:37:16.470Z,4.10
2023-02-24T02:39:58.816Z,4.10
2023-02-24T02:42:42.989Z,4.10
2023-02-24T02:45:16.333Z,4.10
2023-02-24T02:47:54.037Z,4.10
2023-02-24T02:50:43.526Z,4.10
2023-02-24T02:53:28.749Z,4.10
2023-02-24T02:56:08.490Z,4.10
2023-02-24T02:58:40.349Z,4.10
2023-02-24T03:01:09.487Z,4.00
2023-02-24T03:03:46.986Z,4.00
2023-02-24T03:06:31.087Z,3.90
2023-02-24T03:09:23.921Z,4.00
2023-02-24T03:12:02.264Z,3.90
2023-02-24T03:14:37.649Z,3.90
2023-02-24T03:17:12.799Z,3.90
2023-02-24T03:19:41.895Z,3.80
2023-02-24T03:22:13.941Z,3.80
2023-02-24T03:24:44.902Z,3.80
2023-02-24T03:27:24.558Z,3.70
2023-02-24T03:29:59.725Z,3.70
2023-02-24T03:32:43.922Z,3.70
2023-02-24T03:35:19.640Z,3.60
2023-02-24T03:37:50.031Z,3.70
2023-02-24T03:40:17.767Z,3.60
2023-02-24T03:42:52.200Z,3.50
2023-02-24T03:45:22.680Z,3.40
2023-02-24T03:47:51.081Z,3.30
2023-02-24T03:50:20.107Z,3.30
2023-02-24T03:53:01.571Z,3.20
2023-02-24T03:55:58.840Z,3.20
2023-02-24T03:58:49.775Z,3.20
2023-02-24T04:01:34.828Z,3.20
2023-02-24T04:04:10.607Z,3.20
2023-02-24T04:06:53.151Z,3.10
2023-02-24T04:09:33.354Z,3.10
2023-02-24T04:12:21.398Z,3.10
2023-02-24T04:14:57.366Z,3.00
2023-02-24T04:17:32.162Z,3.10
2023-02-24T04:20:30.697Z,3.10
2023-02-24T04:23:04.291Z,3.00
2023-02-24T04:25:31.854Z,2.90
2023-02-24T04:28:00.726Z,2.90
2023-02-24T04:30:33.508Z,2.90
2023-02-24T04:33:00.978Z,2.90
2023-02-24T04:35:28.032Z,2.80
2023-02-24T04:37:55.812Z,2.70
2023-02-24T04:40:23.447Z,2.70
2023-02-24T04:42:52.134Z,2.70
2023-02-24T04:45:25.142Z,2.60
2023-02-24T04:48:01.109Z,2.50
2023-02-24T04:50:35.352Z,2.50
2023-02-24T04:53:07.252Z,2.40
2023-02-24T04:55:40.883Z,2.40
2023-02-24T04:58:11.284Z,2.40
2023-02-24T05:00:41.495Z,2.40
2023-02-24T05:03:11.916Z,2.40
2023-02-24T05:05:38.897Z,2.30
2023-02-24T05:08:09.113Z,2.30
2023-02-24T05:10:44.629Z,2.30
2023-02-24T05:13:16.115Z,2.30
2023-02-24T05:15:45.343Z,2.40
2023-02-24T05:18:17.140Z,2.20
2023-02-24T05:21:05.421Z,2.30
2023-02-24T05:23:40.924Z,2.30
2023-02-24T05:26:09.089Z,2.40
2023-02-24T05:28:38.543Z,2.40
2023-02-24T05:31:11.036Z,2.40
2023-02-24T05:33:39.336Z,2.50
2023-02-24T05:36:09.619Z,2.60
2023-02-24T05:38:39.752Z,2.50
2023-02-24T05:41:17.132Z,2.60
2023-02-24T05:43:53.422Z,2.60
2023-02-24T05:46:28.201Z,2.60
2023-02-24T05:48:57.101Z,2.50
2023-02-24T05:51:27.175Z,2.60
2023-02-24T05:53:55.650Z,2.60
2023-02-24T05:56:23.871Z,2.50
2023-02-24T05:59:01.938Z,2.60
2023-02-24T06:01:34.816Z,2.60
2023-02-24T06:04:06.765Z,2.60
2023-02-24T06:06:42.072Z,2.50
2023-02-24T06:09:12.996Z,2.50
2023-02-24T06:11:42.364Z,2.50
2023-02-24T06:14:11.743Z,2.50
2023-02-24T06:16:41.120Z,2.50
2023-02-24T06:19:10.484Z,2.50
2023-02-24T06:21:41.252Z,2.50
2023-02-24T06:24:18.329Z,2.40
2023-02-24T06:26:46.402Z,2.50
2023-02-24T06:29:15.515Z,2.40
2023-02-24T06:31:44.157Z,2.40
2023-02-24T06:34:15.207Z,2.30
2023-02-24T06:36:43.998Z,2.30
2023-02-24T06:39:14.695Z,2.30
2023-02-24T06:41:42.662Z,2.40
2023-02-24T06:44:09.775Z,2.40
2023-02-24T06:46:37.572Z,2.30
2023-02-24T06:49:09.197Z,2.40
2023-02-24T06:51:36.330Z,2.40
2023-02-24T06:54:03.319Z,2.50
2023-02-24T06:56:32.348Z,2.50
2023-02-24T06:58:59.447Z,2.50
2023-02-24T07:01:29.471Z,2.60
2023-02-24T07:04:08.010Z,2.60
2023-02-24T07:06:38.455Z,2.60
2023-02-24T07:09:08.778Z,2.60
2023-02-24T07:11:36.666Z,2.60
2023-02-24T07:14:05.791Z,2.60
2023-02-24T07:16:34.809Z,2.70
2023-02-24T07:19:05.256Z,2.70
2023-02-24T07:21:39.773Z,2.70
2023-02-24T07:24:14.626Z,2.70
2023-02-24T07:26:44.057Z,2.70
2023-02-24T07:29:12.506Z,2.70
2023-02-24T07:31:39.958Z,2.80
2023-02-24T07:34:07.024Z,2.80
2023-02-24T07:36:38.913Z,2.80
2023-02-24T07:39:09.710Z,2.90
2023-02-24T07:41:37.404Z,2.90
2023-02-24T07:44:09.671Z,2.90
2023-02-24T07:46:37.447Z,3.00
2023-02-24T07:49:04.998Z,3.00
2023-02-24T07:51:32.058Z,3.00
2023-02-24T07:54:01.638Z,2.90
2023-02-24T07:56:31.576Z,2.90
2023-02-24T07:58:59.917Z,3.00
2023-02-24T08:01:39.256Z,3.00
2023-02-24T08:04:13.107Z,3.00
2023-02-24T08:06:46.926Z,3.00
2023-02-24T08:09:18.622Z,3.10
2023-02-24T08:11:47.316Z,3.10
2023-02-24T08:14:15.517Z,3.20
2023-02-24T08:16:48.877Z,3.20
2023-02-24T08:19:21.123Z,3.20
2023-02-24T08:21:51.752Z,3.20
2023-02-24T08:24:25.439Z,3.20
2023-02-24T08:27:09.401Z,3.20
2023-02-24T08:29:58.373Z,3.30
2023-02-24T08:32:40.832Z,3.40
2023-02-24T08:35:15.606Z,3.40
2023-02-24T08:37:52.906Z,3.30
2023-02-24T08:40:38.210Z,3.40
2023-02-24T08:43:19.607Z,3.40
2023-02-24T08:46:12.747Z,3.50
2023-02-24T08:48:43.166Z,3.50
2023-02-24T08:51:23.222Z,3.40
2023-02-24T08:53:53.395Z,3.40
2023-02-24T08:56:26.235Z,3.40
2023-02-24T08:59:05.552Z,3.50
2023-02-24T09:01:39.327Z,3.50
2023-02-24T09:04:12.117Z,3.40
2023-02-24T09:06:44.415Z,3.40
2023-02-24T09:09:17.807Z,3.40
2023-02-24T09:12:06.381Z,3.30
2023-02-24T09:14:38.275Z,3.20
2023-02-24T09:17:14.156Z,3.20
2023-02-24T09:19:52.070Z,3.00
2023-02-24T09:22:32.232Z,3.00
2023-02-24T09:25:41.142Z,3.10
2023-02-24T09:28:20.004Z,3.00
2023-02-24T09:30:55.433Z,3.00
2023-02-24T09:33:51.322Z,3.00
2023-02-24T09:36:28.027Z,3.00
2023-02-24T09:38:58.175Z,2.90
2023-02-24T09:41:45.482Z,2.90
2023-02-24T09:44:19.063Z,2.90
2023-02-24T09:47:01.161Z,2.80
2023-02-24T09:49:56.628Z,2.80
2023-02-24T09:52:57.592Z,2.90
2023-02-24T09:56:00.449Z,2.80
2023-02-24T09:58:44.021Z,2.70
2023-02-24T10:01:33.895Z,2.80
2023-02-24T10:04:28.032Z,2.70
2023-02-24T10:07:12.082Z,2.60
2023-02-24T10:09:55.522Z,2.70
2023-02-24T10:12:32.770Z,2.80
2023-02-24T10:15:21.206Z,2.80
2023-02-24T10:18:04.176Z,2.70
2023-02-24T10:20:40.141Z,2.80
2023-02-24T10:23:11.456Z,2.90
2023-02-24T10:25:58.260Z,2.90
2023-02-24T10:28:44.092Z,2.70
2023-02-24T10:31:26.914Z,2.80
2023-02-24T10:34:11.893Z,2.90
2023-02-24T10:36:39.440Z,2.80
2023-02-24T10:39:17.683Z,2.80
2023-02-24T10:41:47.352Z,2.70
2023-02-24T10:44:25.183Z,2.70
2023-02-24T10:47:11.690Z,2.70
2023-02-24T10:49:58.232Z,2.70
2023-02-24T10:52:45.782Z,2.80
2023-02-24T10:55:45.393Z,2.80
2023-02-24T10:58:37.905Z,2.80
2023-02-24T11:01:13.617Z,2.90
2023-02-24T11:04:02.277Z,2.90
2023-02-24T11:06:41.290Z,2.90
2023-02-24T11:09:20.538Z,2.80
2023-02-24T11:12:07.463Z,2.80
2023-02-24T11:15:15.807Z,2.80
2023-02-24T11:17:58.552Z,2.70
2023-02-24T11:20:47.898Z,2.70
2023-02-24T11:23:43.473Z,2.80
2023-02-24T11:26:28.019Z,2.80
2023-02-24T11:29:07.064Z,2.80
2023-02-24T11:32:00.236Z,2.90
2023-02-24T11:34:52.290Z,2.90
2023-02-24T11:37:43.327Z,2.90
2023-02-24T11:40:27.102Z,3.00
2023-02-24T11:43:10.491Z,2.90
2023-02-24T11:45:41.155Z,2.90
2023-02-24T11:48:26.840Z,2.90
2023-02-24T11:51:05.087Z,2.80
2023-02-24T11:53:36.329Z,2.70
2023-02-24T11:56:15.898Z,2.70
2023-02-24T11:59:02.020Z,2.60
2023-02-24T12:01:41.263Z,2.70
2023-02-24T12:04:11.869Z,2.70
2023-02-24T12:06:59.959Z,2.70
2023-02-24T12:09:35.233Z,2.70
2023-02-24T12:12:12.272Z,2.70
2023-02-24T12:15:12.826Z,2.70
2023-02-24T12:18:06.013Z,2.70
2023-02-24T12:20:48.822Z,2.80
2023-02-24T12:23:34.332Z,2.70
2023-02-24T12:26:25.320Z,2.70
2023-02-24T12:29:20.350Z,2.70
2023-02-24T12:32:25.942Z,2.70
2023-02-24T12:35:15.074Z,2.60
2023-02-24T12:38:03.909Z,2.50
2023-02-24T12:40:48.173Z,2.50
2023-02-24T12:43:24.597Z,2.40
2023-02-24T12:45:57.712Z,2.30
2023-02-24T12:48:29.097Z,2.30
2023-02-24T12:51:11.564Z,2.30
2023-02-24T12:53:44.273Z,2.30
2023-02-24T12:56:16.601Z,2.20
2023-02-24T12:58:49.521Z,2.30
2023-02-24T13:01:30.579Z,2.20
2023-02-24T13:04:36.239Z,2.20
2023-02-24T13:07:41.574Z,2.30
2023-02-24T13:10:30.497Z,2.40
2023-02-24T13:13:15.671Z,2.40
2023-02-24T13:16:01.234Z,2.50
2023-02-24T13:18:30.158Z,2.50
2023-02-24T13:21:19.216Z,2.50
2023-02-24T13:24:03.213Z,2.50
2023-02-24T13:26:34.474Z,2.50
2023-02-24T13:29:11.792Z,2.60
2023-02-24T13:31:51.165Z,2.60
2023-02-24T13:34:45.002Z,2.50
2023-02-24T13:37:13.482Z,2.50
2023-02-24T13:39:42.313Z,2.50
2023-02-24T13:42:18.982Z,2.60
2023-02-24T13:44:55.509Z,2.60
2023-02-24T13:47:35.948Z,2.60
2023-02-24T13:50:29.199Z,2.70
2023-02-24T13:53:12.354Z,2.80
2023-02-24T13:56:02.591Z,2.80
2023-02-24T13:58:46.796Z,2.80
2023-02-24T14:01:17.429Z,2.90
2023-02-24T14:04:07.046Z,3.00
2023-02-24T14:06:37.724Z,3.00
2023-02-24T14:09:07.696Z,3.10
2023-02-24T14:11:37.789Z,3.20
2023-02-24T14:14:05.232Z,3.20
2023-02-24T14:16:40.239Z,3.30
2023-02-24T14:19:16.314Z,3.40
2023-02-24T14:21:57.195Z,3.40
2023-02-24T14:24:28.000Z,3.40
2023-02-24T14:26:57.794Z,3.60
2023-02-24T14:29:38.360Z,3.50
2023-02-24T14:32:24.960Z,3.50
2023-02-24T14:34:53.827Z,3.50
2023-02-24T14:37:39.474Z,3.40
2023-02-24T14:40:16.402Z,3.50
2023-02-24T14:42:49.812Z,3.50
2023-02-24T14:45:32.441Z,3.50
2023-02-24T14:48:03.960Z,3.50
2023-02-24T14:50:37.418Z,3.50
2023-02-24T14:53:16.415Z,3.60
2023-02-24T14:55:49.200Z,3.60
2023-02-24T14:58:26.760Z,3.60
2023-02-24T15:01:04.235Z,3.60
2023-02-24T15:03:38.051Z,3.60
2023-02-24T15:06:11.903Z,3.60
2023-02-24T15:08:50.466Z,3.60
2023-02-24T15:11:18.215Z,3.60
2023-02-24T15:13:50.432Z,3.70
2023-02-24T15:16:25.666Z,3.70
2023-02-24T15:18:56.580Z,3.70
2023-02-24T15:21:41.483Z,3.80
2023-02-24T15:24:32.407Z,3.80
2023-02-24T15:27:20.647Z,3.80
2023-02-24T15:30:09.978Z,3.80
2023-02-24T15:32:40.240Z,3.80
2023-02-24T15:35:24.591Z,3.90
2023-02-24T15:37:57.201Z,3.90
2023-02-24T15:40:26.804Z,4.00
2023-02-24T15:43:11.561Z,3.90
2023-02-24T15:45:41.895Z,4.00
2023-02-24T15:48:25.074Z,4.10
2023-02-24T15:50:53.751Z,4.10
2023-02-24T15:53:20.689Z,4.00
2023-02-24T15:55:49.748Z,4.10
2023-02-24T15:58:20.265Z,4.00
2023-02-24T16:00:50.858Z,4.10
2023-02-24T16:03:20.488Z,4.10
2023-02-24T16:05:47.519Z,4.10
2023-02-24T16:08:20.887Z,4.20
2023-02-24T16:10:50.513Z,4.20
2023-02-24T16:13:21.392Z,4.10
2023-02-24T16:15:49.141Z,4.10
2023-02-24T16:18:22.726Z,4.20
2023-02-24T16:20:57.116Z,4.20
2023-02-24T16:23:26.288Z,4.20
2023-02-24T16:25:59.031Z,4.20
2023-02-24T16:28:26.728Z,4.20
2023-02-24T16:30:53.920Z,4.20
2023-02-24T16:33:23.974Z,4.20
2023-02-24T16:35:55.237Z,4.20
2023-02-24T16:38:27.010Z,4.20
2023-02-24T16:40:55.953Z,4.30
2023-02-24T16:43:23.173Z,4.20
2023-02-24T16:45:52.905Z,4.20
2023-02-24T16:48:23.051Z,4.30
2023-02-24T16:50:50.323Z,4.30
2023-02-24T16:53:20.582Z,4.30
2023-02-24T16:55:47.626Z,4.30
2023-02-24T16:58:15.215Z,4.40
2023-02-24T17:00:45.650Z,4.40
2023-02-24T17:03:37.690Z,4.40
2023-02-24T17:06:04.602Z,4.40
2023-02-24T17:08:32.026Z,4.40
2023-02-24T17:10:59.088Z,4.40
2023-02-24T17:13:25.965Z,4.40
2023-02-24T17:15:57.495Z,4.50
2023-02-24T17:18:25.689Z,4.50
2023-02-24T17:20:53.406Z,4.50
2023-02-24T17:23:20.465Z,4.50
2023-02-24T17:25:52.871Z,4.50
2023-02-24T17:28:19.952Z,4.50
2023-02-24T17:30:47.291Z,4.60
2023-02-24T17:33:15.262Z,5.10
2023-02-24T17:35:43.310Z,4.60
2023-02-24T17:38:17.968Z,4.60
2023-02-24T17:40:47.830Z,4.60
2023-02-24T17:43:15.013Z,4.60
2023-02-24T17:45:45.045Z,4.50
2023-02-24T17:48:13.928Z,4.40
2023-02-24T17:50:45.161Z,4.40
2023-02-24T17:53:12.089Z,4.40
2023-02-24T17:55:40.355Z,4.40
2023-02-24T17:58:10.708Z,4.40
2023-02-24T18:00:38.392Z,4.40
2023-02-24T18:03:05.568Z,4.40
2023-02-24T18:05:34.816Z,4.40
2023-02-24T18:08:01.698Z,4.50
2023-02-24T18:10:28.505Z,4.40
2023-02-24T18:12:55.363Z,4.50
2023-02-24T18:15:22.390Z,4.50
2023-02-24T18:17:49.269Z,4.50
2023-02-24T18:20:16.137Z,4.40
2023-02-24T18:22:43.068Z,4.50
2023-02-24T18:25:11.202Z,4.50
2023-02-24T18:27:38.019Z,4.50
2023-02-24T18:30:10.245Z,4.50
2023-02-24T18:32:44.418Z,4.50
2023-02-24T18:35:13.013Z,4.50
2023-02-24T18:37:40.283Z,4.50
2023-02-24T18:40:07.602Z,4.60
2023-02-24T18:42:34.504Z,4.60
2023-02-24T18:45:04.248Z,4.60
2023-02-24T18:47:31.161Z,4.50
2023-02-24T18:49:57.998Z,4.50
2023-02-24T18:52:25.003Z,4.30
2023-02-24T18:54:53.221Z,4.20
2023-02-24T18:57:20.168Z,4.10
2023-02-24T18:59:50.776Z,4.00
2023-02-24T19:02:18.173Z,4.00
2023-02-24T19:04:45.946Z,4.10
2023-02-24T19:07:13.640Z,4.10
2023-02-24T19:09:41.942Z,4.20
2023-02-24T19:12:09.469Z,4.20
2023-02-24T19:14:37.284Z,4.20
2023-02-24T19:17:04.274Z,4.10
2023-02-24T19:19:31.168Z,4.10
2023-02-24T19:21:58.196Z,4.10
2023-02-24T19:24:25.513Z,4.00
2023-02-24T19:26:54.260Z,4.00
2023-02-24T19:29:22.496Z,4.00
2023-02-24T19:31:58.172Z,4.00
2023-02-24T19:34:25.585Z,4.00
2023-02-24T19:36:52.355Z,3.90
2023-02-24T19:39:19.541Z,3.90
2023-02-24T19:41:49.204Z,3.90
2023-02-24T19:44:16.793Z,3.90
2023-02-24T19:46:44.363Z,3.80
2023-02-24T19:49:11.199Z,3.80
2023-02-24T19:51:38.111Z,3.80
2023-02-24T19:54:08.383Z,3.70
2023-02-24T19:56:37.252Z,3.80
2023-02-24T19:59:06.773Z,3.70
2023-02-24T20:01:34.192Z,3.80
2023-02-24T20:04:03.470Z,3.80
2023-02-24T20:06:36.145Z,3.80
2023-02-24T20:09:06.505Z,3.80
2023-02-24T20:11:36.545Z,3.80
2023-02-24T20:14:03.680Z,3.80
2023-02-24T20:16:36.663Z,3.80
2023-02-24T20:19:05.983Z,3.90
2023-02-24T20:21:34.095Z,3.90
2023-02-24T20:24:02.553Z,3.90
2023-02-24T20:26:30.326Z,3.90
2023-02-24T20:28:57.582Z,3.90
2023-02-24T20:31:24.588Z,3.90
2023-02-24T20:33:51.921Z,3.90
2023-02-24T20:36:28.764Z,3.90
2023-02-24T20:38:58.188Z,4.00
2023-02-24T20:41:27.160Z,4.00
2023-02-24T20:43:55.242Z,4.00
2023-02-24T20:46:25.901Z,4.00
2023-02-24T20:48:57.257Z,3.90
2023-02-24T20:51:24.870Z,4.00
2023-02-24T20:53:57.859Z,4.00
2023-02-24T20:56:33.127Z,4.00
2023-02-24T20:59:02.867Z,4.00
2023-02-24T21:01:31.257Z,4.00
2023-02-24T21:03:58.721Z,4.00
2023-02-24T21:06:26.435Z,3.90
2023-02-24T21:08:53.767Z,4.00
2023-02-24T21:11:21.641Z,4.00
2023-02-24T21:13:53.429Z,3.90
2023-02-24T21:16:21.877Z,3.90
2023-02-24T21:18:50.630Z,4.00
2023-02-24T21:21:19.638Z,3.90
2023-02-24T21:23:47.322Z,3.90
2023-02-24T21:26:15.109Z,3.90
2023-02-24T21:28:42.085Z,3.90
2023-02-24T21:31:15.029Z,3.90
2023-02-24T21:33:42.852Z,3.90
2023-02-24T21:36:13.778Z,3.90
2023-02-24T21:38:41.338Z,3.80
2023-02-24T21:41:12.428Z,3.80
2023-02-24T21:43:39.300Z,3.80
2023-02-24T21:46:12.145Z,3.80
2023-02-24T21:48:40.689Z,3.80
2023-02-24T21:51:09.924Z,3.80
2023-02-24T21:53:44.035Z,3.80
2023-02-24T21:56:19.068Z,3.80
2023-02-24T21:59:00.731Z,3.80
2023-02-24T22:01:33.390Z,3.80
2023-02-24T22:04:03.426Z,3.80
2023-02-24T22:06:37.338Z,3.80
2023-02-24T22:09:09.603Z,3.80
2023-02-24T22:11:39.686Z,3.80
2023-02-24T22:14:08.909Z,3.70
2023-02-24T22:16:36.361Z,3.70
2023-02-24T22:19:04.132Z,3.70
2023-02-24T22:21:31.467Z,3.70
2023-02-24T22:24:02.281Z,3.70
2023-02-24T22:26:30.597Z,3.70
2023-02-24T22:28:58.146Z,3.70
2023-02-24T22:31:28.294Z,3.70
2023-02-24T22:33:55.560Z,3.70
2023-02-24T22:36:25.521Z,3.70
2023-02-24T22:38:56.010Z,3.70
2023-02-24T22:41:33.045Z,3.70
2023-02-24T22:44:01.017Z,3.70
2023-02-24T22:46:30.753Z,3.60
2023-02-24T22:48:58.801Z,3.60
2023-02-24T22:51:26.142Z,3.60
2023-02-24T22:53:54.085Z,3.60
2023-02-24T22:56:25.860Z,3.60
2023-02-24T22:58:52.919Z,3.60
2023-02-24T23:01:25.153Z,3.60
2023-02-24T23:03:52.315Z,3.60
2023-02-24T23:06:28.522Z,3.60
2023-02-24T23:08:57.462Z,3.60
2023-02-24T23:11:33.668Z,3.60
2023-02-24T23:14:04.118Z,3.60
2023-02-24T23:16:34.929Z,3.60
2023-02-24T23:19:05.351Z,3.50
2023-02-24T23:21:40.676Z,3.60
2023-02-24T23:24:11.025Z,3.60
2023-02-24T23:26:42.007Z,3.60
2023-02-24T23:29:10.464Z,3.60
2023-02-24T23:31:38.234Z,3.50
2023-02-24T23:34:07.360Z,3.60
2023-02-24T23:36:43.663Z,3.60
2023-02-24T23:39:12.576Z,3.60
2023-02-24T23:41:41.343Z,3.60
2023-02-24T23:44:09.192Z,3.60
2023-02-24T23:46:37.280Z,3.50
2023-02-24T23:49:05.133Z,3.50
2023-02-24T23:51:46.954Z,3.50
2023-02-24T23:54:16.074Z,3.50
2023-02-24T23:56:42.997Z,3.50
2023-02-24T23:59:09.784Z,3.60
